createdAt,value
2024-05-09T00:01:00.493Z,5.67
2024-05-09T00:03:30.472Z,5.43
2024-05-09T00:06:03.267Z,6.00
2024-05-09T00:08:33.415Z,6.10
2024-05-09T00:11:03.641Z,5.80
2024-05-09T00:13:33.541Z,6.20
2024-05-09T00:16:03.512Z,5.67
2024-05-09T00:18:33.643Z,5.70
2024-05-09T00:21:06.926Z,5.63
2024-05-09T00:23:36.815Z,5.53
2024-05-09T00:26:07.105Z,5.80
2024-05-09T00:28:36.945Z,5.83
2024-05-09T00:31:06.723Z,5.47
2024-05-09T00:33:36.593Z,5.60
2024-05-09T00:36:09.858Z,5.90
2024-05-09T00:38:39.765Z,6.03
2024-05-09T00:41:09.620Z,5.20
2024-05-09T00:43:39.371Z,5.97
2024-05-09T00:46:09.181Z,5.93
2024-05-09T00:48:39.134Z,5.80
2024-05-09T00:51:11.694Z,5.43
2024-05-09T00:53:41.612Z,5.80
2024-05-09T00:56:13.508Z,5.30
2024-05-09T00:58:43.458Z,5.60
2024-05-09T01:01:13.458Z,5.73
2024-05-09T01:03:44.309Z,5.87
2024-05-09T01:06:17.649Z,6.07
2024-05-09T01:08:47.524Z,5.73
2024-05-09T01:11:18.671Z,6.07
2024-05-09T01:13:48.667Z,5.97
2024-05-09T01:16:18.583Z,5.63
2024-05-09T01:18:48.686Z,5.47
2024-05-09T01:21:21.278Z,5.80
2024-05-09T01:23:53.771Z,5.67
2024-05-09T01:26:23.519Z,5.97
2024-05-09T01:28:53.397Z,5.33
2024-05-09T01:31:23.149Z,5.53
2024-05-09T01:33:52.988Z,5.50
2024-05-09T01:36:22.777Z,5.13
2024-05-09T01:38:55.086Z,5.20
2024-05-09T01:41:24.936Z,5.40
2024-05-09T01:43:54.876Z,5.70
2024-05-09T01:46:24.887Z,5.47
2024-05-09T01:48:54.898Z,5.57
2024-05-09T01:51:24.880Z,5.07
2024-05-09T01:53:57.320Z,5.40
2024-05-09T01:56:27.443Z,5.43
2024-05-09T01:58:57.873Z,5.50
2024-05-09T02:01:27.863Z,5.30
2024-05-09T02:03:57.926Z,5.43
2024-05-09T02:06:27.906Z,5.33
2024-05-09T02:09:00.274Z,5.40
2024-05-09T02:11:30.014Z,5.23
2024-05-09T02:13:59.918Z,5.20
2024-05-09T02:16:29.750Z,5.73
2024-05-09T02:18:59.505Z,5.33
2024-05-09T02:21:29.241Z,5.67
2024-05-09T02:24:01.698Z,5.43
2024-05-09T02:26:31.564Z,5.70
2024-05-09T02:29:01.966Z,5.53
2024-05-09T02:31:31.870Z,5.47
2024-05-09T02:34:02.008Z,6.00
2024-05-09T02:36:31.828Z,5.60
2024-05-09T02:39:01.649Z,5.30
2024-05-09T02:41:31.502Z,5.97
2024-05-09T02:43:58.648Z,5.57
2024-05-09T02:46:28.410Z,5.87
2024-05-09T02:48:55.582Z,5.53
2024-05-09T02:51:25.343Z,5.97
2024-05-09T02:53:52.408Z,6.17
2024-05-09T02:56:24.870Z,6.10
2024-05-09T02:58:52.003Z,6.33
2024-05-09T03:01:21.939Z,5.87
2024-05-09T03:03:51.177Z,6.17
2024-05-09T03:06:21.171Z,6.30
2024-05-09T03:08:48.438Z,6.17
2024-05-09T03:11:27.435Z,6.27
2024-05-09T03:13:55.245Z,6.87
2024-05-09T03:16:25.023Z,6.80
2024-05-09T03:18:52.209Z,6.43
2024-05-09T03:21:21.973Z,6.90
2024-05-09T03:23:49.139Z,6.80
2024-05-09T03:26:19.713Z,7.10
2024-05-09T03:28:49.601Z,6.30
2024-05-09T03:31:21.333Z,6.80
2024-05-09T03:33:48.737Z,6.90
2024-05-09T03:36:18.521Z,7.43
2024-05-09T03:38:50.540Z,7.27
2024-05-09T03:41:22.274Z,7.37
2024-05-09T03:43:54.799Z,7.47
2024-05-09T03:46:24.600Z,7.40
2024-05-09T03:48:51.864Z,8.10
2024-05-09T03:51:21.625Z,7.27
2024-05-09T03:53:48.758Z,7.53
2024-05-09T03:56:19.238Z,7.97
2024-05-09T03:58:46.428Z,6.87
2024-05-09T04:01:18.949Z,7.70
2024-05-09T04:03:46.377Z,7.60
2024-05-09T04:06:22.655Z,8.13
2024-05-09T04:08:49.776Z,7.37
2024-05-09T04:11:20.748Z,7.20
2024-05-09T04:13:48.041Z,6.87
2024-05-09T04:16:20.485Z,7.33
2024-05-09T04:18:47.743Z,7.43
2024-05-09T04:21:17.617Z,6.93
2024-05-09T04:23:44.836Z,7.37
2024-05-09T04:26:14.625Z,7.77
2024-05-09T04:28:41.701Z,7.23
2024-05-09T04:31:11.399Z,7.70
2024-05-09T04:33:41.354Z,7.30
2024-05-09T04:36:11.188Z,7.40
2024-05-09T04:38:38.359Z,7.43
2024-05-09T04:41:08.526Z,7.83
2024-05-09T04:43:36.092Z,7.10
2024-05-09T04:46:05.934Z,6.97
2024-05-09T04:48:33.240Z,7.40
2024-05-09T04:51:25.684Z,7.00
2024-05-09T04:53:53.776Z,7.10
2024-05-09T04:56:24.052Z,6.50
2024-05-09T04:58:51.287Z,7.17
2024-05-09T05:01:21.122Z,6.83
2024-05-09T05:03:48.417Z,7.40
2024-05-09T05:06:20.894Z,7.27
2024-05-09T05:08:48.020Z,7.47
2024-05-09T05:11:17.865Z,7.10
2024-05-09T05:13:45.032Z,7.47
2024-05-09T05:16:14.875Z,7.50
2024-05-09T05:18:42.043Z,7.90
2024-05-09T05:21:11.993Z,7.00
2024-05-09T05:23:42.431Z,7.37
2024-05-09T05:26:12.193Z,7.17
2024-05-09T05:28:39.419Z,6.57
2024-05-09T05:31:09.254Z,7.10
2024-05-09T05:33:36.742Z,7.20
2024-05-09T05:36:06.769Z,7.17
2024-05-09T05:38:36.606Z,6.30
2024-05-09T05:41:06.383Z,5.97
2024-05-09T05:43:37.415Z,5.63
2024-05-09T05:46:04.697Z,6.10
2024-05-09T05:48:34.554Z,7.10
2024-05-09T05:51:04.322Z,6.27
2024-05-09T05:53:34.714Z,5.80
2024-05-09T05:56:02.768Z,5.40
2024-05-09T05:58:35.419Z,6.00
2024-05-09T06:01:02.582Z,5.03
2024-05-09T06:03:32.549Z,5.80
2024-05-09T06:06:02.797Z,5.80
2024-05-09T06:08:32.727Z,6.17
2024-05-09T06:10:59.986Z,5.30
2024-05-09T06:13:29.783Z,5.40
2024-05-09T06:16:00.901Z,5.60
2024-05-09T06:18:30.898Z,5.87
2024-05-09T06:20:58.225Z,5.67
2024-05-09T06:23:28.023Z,5.77
2024-05-09T06:25:55.400Z,5.27
2024-05-09T06:28:25.157Z,5.40
2024-05-09T06:30:52.316Z,5.97
2024-05-09T06:33:25.028Z,5.03
2024-05-09T06:35:54.549Z,5.87
2024-05-09T06:38:24.381Z,5.17
2024-05-09T06:40:51.523Z,5.60
2024-05-09T06:43:21.219Z,5.67
2024-05-09T06:45:49.127Z,5.83
2024-05-09T06:48:21.065Z,6.45
2024-05-09T06:50:51.507Z,5.73
2024-05-09T06:53:23.667Z,5.68
2024-05-09T06:55:50.874Z,5.40
2024-05-09T06:58:20.609Z,5.60
2024-05-09T07:00:47.892Z,5.78
2024-05-09T07:03:19.583Z,5.43
2024-05-09T07:05:48.632Z,5.77
2024-05-09T07:08:22.011Z,6.30
2024-05-09T07:10:49.435Z,5.60
2024-05-09T07:13:19.410Z,5.22
2024-05-09T07:15:46.521Z,5.70
2024-05-09T07:18:20.489Z,5.72
2024-05-09T07:20:49.328Z,5.47
2024-05-09T07:23:22.663Z,5.80
2024-05-09T07:25:49.855Z,5.88
2024-05-09T07:28:19.955Z,5.70
2024-05-09T07:30:49.996Z,6.70
2024-05-09T07:33:17.705Z,6.47
2024-05-09T07:35:47.758Z,6.80
2024-05-09T07:38:15.062Z,6.82
2024-05-09T07:40:47.574Z,5.80
2024-05-09T07:43:16.133Z,5.72
2024-05-09T07:45:52.155Z,6.05
2024-05-09T07:52:39.071Z,5.75
2024-05-09T07:53:46.533Z,5.00
2024-05-09T07:56:23.900Z,5.05
2024-05-09T07:58:52.352Z,5.93
2024-05-09T08:01:22.560Z,5.43
2024-05-09T08:03:50.265Z,4.97
2024-05-09T08:06:20.289Z,5.20
2024-05-09T08:08:47.495Z,5.28
2024-05-09T08:11:17.484Z,5.07
2024-05-09T08:13:47.301Z,6.15
2024-05-09T08:16:17.226Z,5.50
2024-05-09T08:18:44.567Z,4.30
2024-05-09T08:21:14.395Z,5.40
2024-05-09T08:23:41.504Z,4.85
2024-05-09T08:26:11.351Z,4.30
2024-05-09T08:28:38.412Z,5.00
2024-05-09T08:31:11.872Z,4.57
2024-05-09T08:33:46.727Z,4.22
2024-05-09T08:36:14.473Z,4.60
2024-05-09T08:38:44.173Z,4.57
2024-05-09T08:41:13.956Z,4.57
2024-05-09T08:43:44.009Z,4.38
2024-05-09T08:46:14.590Z,4.63
2024-05-09T08:48:46.033Z,4.18
2024-05-09T08:51:14.097Z,4.15
2024-05-09T08:53:43.905Z,7.47
2024-05-09T08:56:11.829Z,4.32
2024-05-09T08:58:41.917Z,3.90
2024-05-09T09:01:10.176Z,4.32
2024-05-09T09:03:43.248Z,4.78
2024-05-09T09:06:12.062Z,4.88
2024-05-09T09:08:42.276Z,4.68
2024-05-09T09:11:09.505Z,5.05
2024-05-09T09:13:39.293Z,6.18
2024-05-09T09:16:06.976Z,5.50
2024-05-09T09:18:36.959Z,5.38
2024-05-09T09:21:10.236Z,4.53
2024-05-09T09:23:39.992Z,4.72
2024-05-09T09:26:07.213Z,6.70
2024-05-09T09:28:40.786Z,5.38
2024-05-09T09:31:07.926Z,5.68
2024-05-09T09:33:38.128Z,4.85
2024-05-09T09:36:09.697Z,4.65
2024-05-09T09:38:41.042Z,4.95
2024-05-09T09:41:08.692Z,4.32
2024-05-09T09:43:38.923Z,4.60
2024-05-09T09:46:08.706Z,5.05
2024-05-09T09:48:41.095Z,4.25
2024-05-09T09:51:11.190Z,4.10
2024-05-09T09:53:42.565Z,4.65
2024-05-09T09:56:10.566Z,4.13
2024-05-09T09:58:41.484Z,4.30
2024-05-09T10:01:08.795Z,4.60
2024-05-09T10:03:38.886Z,4.70
2024-05-09T10:06:07.096Z,5.28
2024-05-09T10:08:39.566Z,5.85
2024-05-09T10:11:06.990Z,4.68
2024-05-09T10:13:37.177Z,4.80
2024-05-09T10:16:07.709Z,5.35
2024-05-09T10:18:39.305Z,4.10
2024-05-09T10:21:15.600Z,4.80
2024-05-09T10:23:59.268Z,4.82
2024-05-09T10:26:33.308Z,5.40
2024-05-09T10:29:03.570Z,4.75
2024-05-09T10:31:31.016Z,4.15
2024-05-09T10:34:03.379Z,4.30
2024-05-09T10:36:30.791Z,4.70
2024-05-09T10:39:03.151Z,4.50
2024-05-09T10:41:30.442Z,4.60
2024-05-09T10:44:00.164Z,3.85
2024-05-09T10:46:27.335Z,5.07
2024-05-09T10:48:57.212Z,5.22
2024-05-09T10:51:24.763Z,4.88
2024-05-09T10:53:56.824Z,3.95
2024-05-09T10:56:26.667Z,5.25
2024-05-09T10:58:56.689Z,5.38
2024-05-09T11:01:23.927Z,4.93
2024-05-09T11:03:53.924Z,6.50
2024-05-09T11:06:21.407Z,4.15
2024-05-09T11:08:51.418Z,4.45
2024-05-09T11:11:18.782Z,5.72
2024-05-09T11:13:51.274Z,4.03
2024-05-09T11:16:20.510Z,3.97
2024-05-09T11:18:59.066Z,4.88
2024-05-09T11:21:27.023Z,4.57
2024-05-09T11:23:57.347Z,4.65
2024-05-09T11:26:25.615Z,4.72
2024-05-09T11:28:58.076Z,4.68
2024-05-09T11:31:25.448Z,4.43
2024-05-09T11:33:56.728Z,4.75
2024-05-09T11:36:23.861Z,4.32
2024-05-09T11:38:53.710Z,4.28
2024-05-09T11:41:20.900Z,4.15
2024-05-09T11:43:50.696Z,3.72
2024-05-09T11:46:20.626Z,4.10
2024-05-09T11:48:50.645Z,4.47
2024-05-09T11:51:17.897Z,3.92
2024-05-09T11:53:47.562Z,4.78
2024-05-09T11:56:15.679Z,4.78
2024-05-09T11:58:45.486Z,4.13
2024-05-09T12:01:12.655Z,4.10
2024-05-09T12:03:45.234Z,5.57
2024-05-09T12:06:12.712Z,5.13
2024-05-09T12:08:42.720Z,4.32
2024-05-09T12:11:10.239Z,5.07
2024-05-09T12:13:39.916Z,4.18
2024-05-09T12:16:07.242Z,4.35
2024-05-09T12:18:37.261Z,3.80
2024-05-09T12:21:07.142Z,3.70
2024-05-09T12:23:36.840Z,5.00
2024-05-09T12:26:04.021Z,5.00
2024-05-09T12:28:33.751Z,4.50
2024-05-09T12:31:00.914Z,4.68
2024-05-09T12:33:30.927Z,5.40
2024-05-09T12:35:58.308Z,4.45
2024-05-09T12:38:30.740Z,4.80
2024-05-09T12:40:58.067Z,5.05
2024-05-09T12:43:27.976Z,4.30
2024-05-09T12:45:55.284Z,4.63
2024-05-09T12:48:25.203Z,4.40
2024-05-09T12:50:52.520Z,5.38
2024-05-09T12:53:22.319Z,4.65
2024-05-09T12:55:56.940Z,4.50
2024-05-09T12:58:30.204Z,5.10
2024-05-09T13:00:57.575Z,5.50
2024-05-09T13:03:27.436Z,4.28
2024-05-09T13:05:54.743Z,5.10
2024-05-09T13:08:24.590Z,4.97
2024-05-09T13:10:54.427Z,3.90
2024-05-09T13:13:24.292Z,4.40
2024-05-09T13:15:51.513Z,4.53
2024-05-09T13:18:21.399Z,4.47
2024-05-09T13:20:48.521Z,4.45
2024-05-09T13:23:18.268Z,4.95
2024-05-09T13:25:46.561Z,4.45
2024-05-09T13:28:19.674Z,4.18
2024-05-09T13:30:47.601Z,4.90
2024-05-09T13:33:17.496Z,4.75
2024-05-09T13:35:48.997Z,4.50
2024-05-09T13:38:21.270Z,4.93
2024-05-09T13:40:49.369Z,5.43
2024-05-09T13:43:23.560Z,5.00
2024-05-09T13:45:51.011Z,4.20
2024-05-09T13:48:20.908Z,4.07
2024-05-09T13:50:48.058Z,4.88
2024-05-09T13:53:17.850Z,4.80
2024-05-09T13:55:44.943Z,3.90
2024-05-09T13:58:14.867Z,4.43
2024-05-09T14:00:48.832Z,5.05
2024-05-09T14:03:20.813Z,4.68
2024-05-09T14:05:52.468Z,4.43
2024-05-09T14:08:20.453Z,3.95
2024-05-09T14:10:50.677Z,4.03
2024-05-09T14:13:18.517Z,4.25
2024-05-09T14:15:51.493Z,4.93
2024-05-09T14:18:18.925Z,4.20
2024-05-09T14:20:48.800Z,5.70
2024-05-09T14:23:17.833Z,4.72
2024-05-09T14:25:51.287Z,4.07
2024-05-09T14:28:19.628Z,4.30
2024-05-09T14:30:52.217Z,4.10
2024-05-09T14:33:26.944Z,4.20
2024-05-09T14:35:57.032Z,5.40
2024-05-09T14:38:24.428Z,4.35
2024-05-09T14:40:54.362Z,3.85
2024-05-09T14:43:21.613Z,4.10
2024-05-09T14:45:54.284Z,4.38
2024-05-09T14:48:21.687Z,5.22
2024-05-09T14:50:51.500Z,3.60
2024-05-09T14:53:18.619Z,3.70
2024-05-09T14:55:49.950Z,4.13
2024-05-09T14:58:17.248Z,3.65
2024-05-09T15:00:51.190Z,3.58
2024-05-09T15:03:22.427Z,3.90
2024-05-09T15:05:53.227Z,3.80
2024-05-09T15:08:20.614Z,3.92
2024-05-09T15:10:51.231Z,4.13
2024-05-09T15:13:18.785Z,4.03
2024-05-09T15:15:48.788Z,3.97
2024-05-09T15:18:16.229Z,4.18
2024-05-09T15:20:48.958Z,4.20
2024-05-09T15:23:16.431Z,4.28
2024-05-09T15:25:47.158Z,3.75
2024-05-09T15:28:17.052Z,3.63
2024-05-09T15:30:46.512Z,4.03
2024-05-09T15:33:17.531Z,3.40
2024-05-09T15:35:47.520Z,4.28
2024-05-09T15:38:18.571Z,4.22
2024-05-09T15:40:46.325Z,3.85
2024-05-09T15:43:16.300Z,3.78
2024-05-09T15:45:43.456Z,4.30
2024-05-09T15:48:14.672Z,5.25
2024-05-09T15:50:42.829Z,4.68
2024-05-09T15:53:15.688Z,5.93
2024-05-09T15:55:43.377Z,4.30
2024-05-09T15:58:13.519Z,5.00
2024-05-09T16:00:43.527Z,4.68
2024-05-09T16:03:15.711Z,5.28
2024-05-09T16:05:44.232Z,4.32
2024-05-09T16:08:17.557Z,5.40
2024-05-09T16:10:46.279Z,4.68
2024-05-09T16:13:17.738Z,4.93
2024-05-09T16:15:45.447Z,4.07
2024-05-09T16:18:15.423Z,4.78
2024-05-09T16:20:44.225Z,4.30
2024-05-09T16:23:18.002Z,4.20
2024-05-09T16:25:48.049Z,3.95
2024-05-09T16:28:18.689Z,4.18
2024-05-09T16:30:45.973Z,4.18
2024-05-09T16:33:19.420Z,4.60
2024-05-09T16:35:46.892Z,4.07
2024-05-09T16:38:19.376Z,4.10
2024-05-09T16:40:47.202Z,4.40
2024-05-09T16:43:17.393Z,4.70
2024-05-09T16:45:45.049Z,3.95
2024-05-09T16:48:15.722Z,3.97
2024-05-09T16:50:43.268Z,4.28
2024-05-09T16:53:13.805Z,4.30
2024-05-09T16:55:43.766Z,5.18
2024-05-09T16:58:14.472Z,4.05
2024-05-09T17:00:43.652Z,4.10
2024-05-09T17:03:15.866Z,3.78
2024-05-09T17:05:47.245Z,4.88
2024-05-09T17:08:18.448Z,4.43
2024-05-09T17:10:49.702Z,3.53
2024-05-09T17:13:20.316Z,3.83
2024-05-09T17:15:50.704Z,12.48
2024-05-09T17:18:21.121Z,6.32
2024-05-09T17:20:50.475Z,5.55
2024-05-09T17:23:20.224Z,4.10
2024-05-09T17:25:49.965Z,4.70
2024-05-09T17:28:20.064Z,4.40
2024-05-09T17:30:48.729Z,3.78
2024-05-09T17:33:18.709Z,6.43
2024-05-09T17:35:46.232Z,5.00
2024-05-09T17:38:16.121Z,3.97
2024-05-09T17:40:43.353Z,4.88
2024-05-09T17:43:15.743Z,8.73
2024-05-09T17:45:43.235Z,16.85
2024-05-09T17:48:13.776Z,20.08
2024-05-09T17:50:42.015Z,14.02
2024-05-09T17:53:12.283Z,11.32
2024-05-09T17:55:39.676Z,11.13
2024-05-09T17:58:09.818Z,11.70
2024-05-09T18:00:42.063Z,13.38
2024-05-09T18:03:14.210Z,17.65
2024-05-09T18:05:43.160Z,20.63
2024-05-09T18:08:14.169Z,20.55
2024-05-09T18:10:41.760Z,21.58
2024-05-09T18:13:12.378Z,13.38
2024-05-09T18:15:42.499Z,9.80
2024-05-09T18:18:13.112Z,10.43
2024-05-09T18:20:44.509Z,7.72
2024-05-09T18:23:17.275Z,7.20
2024-05-09T18:25:45.841Z,6.53
2024-05-09T18:28:16.820Z,8.75
2024-05-09T18:30:47.260Z,13.90
2024-05-09T18:33:17.467Z,9.23
2024-05-09T18:35:45.026Z,7.68
2024-05-09T18:38:14.871Z,7.38
2024-05-09T18:40:44.024Z,7.72
2024-05-09T18:43:16.402Z,6.45
2024-05-09T18:45:43.939Z,6.25
2024-05-09T18:48:16.513Z,6.30
2024-05-09T18:50:43.837Z,5.88
2024-05-09T18:53:14.055Z,5.70
2024-05-09T18:55:41.384Z,6.68
2024-05-09T18:58:11.287Z,6.10
2024-05-09T19:00:41.180Z,5.90
2024-05-09T19:03:16.326Z,5.57
2024-05-09T19:05:45.126Z,5.00
2024-05-09T19:08:16.107Z,5.78
2024-05-09T19:10:43.660Z,5.43
2024-05-09T19:13:14.464Z,6.03
2024-05-09T19:15:43.228Z,6.57
2024-05-09T19:18:17.447Z,5.43
2024-05-09T19:20:44.976Z,6.40
2024-05-09T19:23:14.787Z,5.80
2024-05-09T19:25:42.012Z,5.43
2024-05-09T19:28:11.872Z,6.10
2024-05-09T19:30:41.910Z,5.50
2024-05-09T19:33:13.870Z,5.47
2024-05-09T19:35:44.377Z,5.93
2024-05-09T19:38:14.679Z,5.78
2024-05-09T19:40:42.056Z,5.93
2024-05-09T19:43:12.174Z,5.53
2024-05-09T19:45:39.509Z,5.25
2024-05-09T19:48:09.879Z,5.50
2024-05-09T19:50:42.463Z,5.57
2024-05-09T19:53:17.245Z,5.85
2024-05-09T19:55:44.387Z,5.47
2024-05-09T19:58:14.257Z,5.82
2024-05-09T20:00:43.356Z,5.88
2024-05-09T20:03:15.249Z,5.57
2024-05-09T20:05:44.554Z,5.75
2024-05-09T20:08:17.185Z,5.55
2024-05-09T20:10:44.452Z,5.32
2024-05-09T20:13:14.399Z,5.18
2024-05-09T20:15:41.716Z,5.57
2024-05-09T20:18:11.807Z,6.50
2024-05-09T20:20:42.396Z,5.47
2024-05-09T20:23:14.411Z,6.25
2024-05-09T20:25:44.474Z,5.68
2024-05-09T20:28:14.357Z,4.95
2024-05-09T20:30:41.722Z,5.40
2024-05-09T20:33:12.635Z,5.60
2024-05-09T20:35:39.920Z,5.40
2024-05-09T20:38:09.725Z,5.22
2024-05-09T20:40:39.048Z,6.53
2024-05-09T20:43:12.434Z,5.60
2024-05-09T20:45:40.298Z,5.75
2024-05-09T20:48:12.884Z,5.45
2024-05-09T20:50:42.652Z,5.10
2024-05-09T20:53:14.790Z,6.05
2024-05-09T20:55:42.781Z,5.93
2024-05-09T20:58:15.460Z,5.80
2024-05-09T21:00:46.049Z,5.50
2024-05-09T21:03:17.765Z,5.30
2024-05-09T21:05:45.892Z,5.40
2024-05-09T21:08:16.238Z,5.60
2024-05-09T21:10:43.715Z,5.60
2024-05-09T21:13:16.646Z,5.05
2024-05-09T21:15:43.996Z,5.35
2024-05-09T21:18:13.762Z,5.70
2024-05-09T21:20:40.912Z,5.75
2024-05-09T21:23:10.671Z,5.80
2024-05-09T21:25:37.807Z,5.53
2024-05-09T21:28:07.797Z,5.05
2024-05-09T21:30:41.817Z,5.90
2024-05-09T21:33:14.674Z,4.90
2024-05-09T21:35:42.625Z,5.00
2024-05-09T21:38:14.037Z,5.40
2024-05-09T21:40:41.740Z,6.13
2024-05-09T21:43:12.123Z,5.40
2024-05-09T21:45:42.013Z,5.50
2024-05-09T21:48:11.849Z,6.10
2024-05-09T21:50:41.555Z,5.40
2024-05-09T21:53:13.126Z,5.50
2024-05-09T21:55:41.016Z,5.20
2024-05-09T21:58:10.902Z,5.45
2024-05-09T22:00:39.685Z,5.60
2024-05-09T22:03:12.662Z,5.40
2024-05-09T22:05:43.882Z,5.70
2024-05-09T22:08:13.819Z,6.03
2024-05-09T22:10:41.043Z,6.50
2024-05-09T22:13:10.941Z,5.53
2024-05-09T22:15:39.924Z,5.50
2024-05-09T22:18:13.145Z,5.77
2024-05-09T22:20:45.478Z,5.27
2024-05-09T22:23:16.212Z,5.80
2024-05-09T22:25:43.517Z,5.70
2024-05-09T22:28:13.390Z,5.30
2024-05-09T22:30:40.660Z,5.77
2024-05-09T22:33:13.185Z,4.70
2024-05-09T22:35:41.036Z,5.30
2024-05-09T22:38:11.141Z,4.80
2024-05-09T22:40:46.490Z,5.33
2024-05-09T22:43:20.311Z,5.60
2024-05-09T22:45:48.441Z,5.37
2024-05-09T22:48:21.156Z,4.80
2024-05-09T22:50:48.353Z,6.10
2024-05-09T22:53:18.146Z,5.13
2024-05-09T22:55:45.317Z,5.90
2024-05-09T22:58:15.069Z,5.70
2024-05-09T23:00:42.325Z,6.10
2024-05-09T23:03:12.266Z,5.80
2024-05-09T23:05:42.256Z,6.00
2024-05-09T23:08:12.184Z,6.10
2024-05-09T23:10:39.535Z,5.13
2024-05-09T23:13:09.538Z,6.10
2024-05-09T23:15:36.946Z,5.73
2024-05-09T23:18:07.447Z,5.50
2024-05-09T23:20:38.606Z,5.87
2024-05-09T23:23:12.563Z,6.07
2024-05-09T23:25:41.757Z,6.20
2024-05-09T23:28:12.054Z,6.00
2024-05-09T23:30:40.908Z,5.67
2024-05-09T23:33:13.299Z,6.33
2024-05-09T23:35:41.982Z,6.23
2024-05-09T23:38:14.382Z,6.27
2024-05-09T23:40:42.731Z,6.37
2024-05-09T23:43:13.503Z,6.27
2024-05-09T23:45:41.509Z,6.10
2024-05-09T23:48:16.137Z,6.67
2024-05-09T23:50:43.375Z,6.50
2024-05-09T23:53:15.737Z,7.00
2024-05-09T23:55:42.989Z,7.27
2024-05-09T23:58:12.743Z,6.90
